sensor_id;sensor_type;location;lat;lon;timestamp;P1;durP1;ratioP1;P2;durP2;ratioP2
25045;SDS011;13044;49.304;12.840;2023-07-31T00:00:00;1.38;;;1.27;;
25045;SDS011;13044;49.304;12.840;2023-07-31T00:02:27;4.78;;;1.48;;
25045;SDS011;13044;49.304;12.840;2023-07-31T00:04:54;2.10;;;1.30;;
25045;SDS011;13044;49.304;12.840;2023-07-31T00:07:20;1.45;;;1.30;;
25045;SDS011;13044;49.304;12.840;2023-07-31T00:09:48;1.33;;;1.13;;
25045;SDS011;13044;49.304;12.840;2023-07-31T00:12:15;1.75;;;1.40;;
25045;SDS011;13044;49.304;12.840;2023-07-31T00:14:41;1.30;;;1.20;;
25045;SDS011;13044;49.304;12.840;2023-07-31T00:17:08;2.33;;;1.38;;
25045;SDS011;13044;49.304;12.840;2023-07-31T00:19:35;2.58;;;1.20;;
25045;SDS011;13044;49.304;12.840;2023-07-31T00:22:02;3.30;;;1.27;;
25045;SDS011;13044;49.304;12.840;2023-07-31T00:24:29;2.13;;;1.20;;
25045;SDS011;13044;49.304;12.840;2023-07-31T00:26:56;2.35;;;1.40;;
25045;SDS011;13044;49.304;12.840;2023-07-31T00:29:23;1.50;;;0.95;;
25045;SDS011;13044;49.304;12.840;2023-07-31T00:31:49;3.15;;;1.30;;
25045;SDS011;13044;49.304;12.840;2023-07-31T00:34:16;3.85;;;1.30;;
25045;SDS011;13044;49.304;12.840;2023-07-31T00:36:43;2.70;;;1.38;;
25045;SDS011;13044;49.304;12.840;2023-07-31T00:39:10;2.25;;;1.35;;
25045;SDS011;13044;49.304;12.840;2023-07-31T00:41:37;1.95;;;1.35;;
25045;SDS011;13044;49.304;12.840;2023-07-31T00:44:04;1.90;;;1.30;;
25045;SDS011;13044;49.304;12.840;2023-07-31T00:46:31;4.22;;;1.58;;
25045;SDS011;13044;49.304;12.840;2023-07-31T00:48:57;1.95;;;1.52;;
25045;SDS011;13044;49.304;12.840;2023-07-31T00:51:25;3.85;;;1.60;;
25045;SDS011;13044;49.304;12.840;2023-07-31T00:53:52;4.35;;;1.65;;
25045;SDS011;13044;49.304;12.840;2023-07-31T00:56:20;2.38;;;1.38;;
25045;SDS011;13044;49.304;12.840;2023-07-31T00:58:48;1.65;;;1.23;;
25045;SDS011;13044;49.304;12.840;2023-07-31T01:01:15;4.15;;;1.35;;
25045;SDS011;13044;49.304;12.840;2023-07-31T01:03:42;1.17;;;1.02;;
25045;SDS011;13044;49.304;12.840;2023-07-31T01:06:18;1.10;;;1.00;;
25045;SDS011;13044;49.304;12.840;2023-07-31T01:11:56;5.95;;;1.95;;
25045;SDS011;13044;49.304;12.840;2023-07-31T01:14:30;2.85;;;1.20;;
25045;SDS011;13044;49.304;12.840;2023-07-31T01:16:57;1.60;;;1.13;;
25045;SDS011;13044;49.304;12.840;2023-07-31T01:19:24;2.50;;;1.08;;
25045;SDS011;13044;49.304;12.840;2023-07-31T01:22:03;1.67;;;1.20;;
25045;SDS011;13044;49.304;12.840;2023-07-31T01:28:02;1.73;;;1.10;;
25045;SDS011;13044;49.304;12.840;2023-07-31T01:30:33;1.95;;;1.45;;
25045;SDS011;13044;49.304;12.840;2023-07-31T01:33:04;1.85;;;1.17;;
25045;SDS011;13044;49.304;12.840;2023-07-31T01:35:34;0.93;;;0.93;;
25045;SDS011;13044;49.304;12.840;2023-07-31T01:38:02;1.27;;;1.10;;
25045;SDS011;13044;49.304;12.840;2023-07-31T01:40:29;4.15;;;1.23;;
25045;SDS011;13044;49.304;12.840;2023-07-31T01:42:56;1.67;;;1.38;;
25045;SDS011;13044;49.304;12.840;2023-07-31T01:45:23;2.58;;;1.00;;
25045;SDS011;13044;49.304;12.840;2023-07-31T01:47:50;1.45;;;1.15;;
25045;SDS011;13044;49.304;12.840;2023-07-31T01:50:17;1.40;;;1.30;;
25045;SDS011;13044;49.304;12.840;2023-07-31T01:52:44;1.77;;;1.15;;
25045;SDS011;13044;49.304;12.840;2023-07-31T01:55:11;1.48;;;1.20;;
25045;SDS011;13044;49.304;12.840;2023-07-31T01:57:38;1.90;;;1.20;;
25045;SDS011;13044;49.304;12.840;2023-07-31T02:00:06;3.08;;;1.52;;
25045;SDS011;13044;49.304;12.840;2023-07-31T02:02:33;1.20;;;1.10;;
25045;SDS011;13044;49.304;12.840;2023-07-31T02:05:00;2.45;;;1.50;;
25045;SDS011;13044;49.304;12.840;2023-07-31T02:07:27;1.50;;;1.30;;
25045;SDS011;13044;49.304;12.840;2023-07-31T02:09:54;1.15;;;1.05;;
25045;SDS011;13044;49.304;12.840;2023-07-31T02:12:20;2.45;;;1.30;;
25045;SDS011;13044;49.304;12.840;2023-07-31T02:14:47;3.13;;;1.40;;
25045;SDS011;13044;49.304;12.840;2023-07-31T02:17:14;2.38;;;1.27;;
25045;SDS011;13044;49.304;12.840;2023-07-31T02:19:41;1.13;;;1.00;;
25045;SDS011;13044;49.304;12.840;2023-07-31T02:22:08;1.13;;;1.02;;
25045;SDS011;13044;49.304;12.840;2023-07-31T02:24:35;1.35;;;1.25;;
25045;SDS011;13044;49.304;12.840;2023-07-31T02:27:02;1.40;;;1.30;;
25045;SDS011;13044;49.304;12.840;2023-07-31T02:29:29;2.30;;;1.20;;
25045;SDS011;13044;49.304;12.840;2023-07-31T02:31:56;1.30;;;1.20;;
25045;SDS011;13044;49.304;12.840;2023-07-31T02:34:22;2.50;;;1.40;;
25045;SDS011;13044;49.304;12.840;2023-07-31T02:36:49;2.95;;;1.13;;
25045;SDS011;13044;49.304;12.840;2023-07-31T02:39:16;2.30;;;1.30;;
25045;SDS011;13044;49.304;12.840;2023-07-31T02:41:43;1.58;;;1.30;;
25045;SDS011;13044;49.304;12.840;2023-07-31T02:44:10;4.10;;;1.48;;
25045;SDS011;13044;49.304;12.840;2023-07-31T02:46:40;2.55;;;1.30;;
25045;SDS011;13044;49.304;12.840;2023-07-31T02:49:07;4.45;;;1.23;;
25045;SDS011;13044;49.304;12.840;2023-07-31T02:51:34;2.03;;;1.40;;
25045;SDS011;13044;49.304;12.840;2023-07-31T02:54:01;2.63;;;1.38;;
25045;SDS011;13044;49.304;12.840;2023-07-31T02:56:27;2.58;;;1.25;;
25045;SDS011;13044;49.304;12.840;2023-07-31T02:58:54;2.17;;;1.60;;
25045;SDS011;13044;49.304;12.840;2023-07-31T03:01:21;1.23;;;1.17;;
25045;SDS011;13044;49.304;12.840;2023-07-31T03:03:48;2.05;;;1.70;;
25045;SDS011;13044;49.304;12.840;2023-07-31T03:06:15;1.45;;;1.35;;
25045;SDS011;13044;49.304;12.840;2023-07-31T03:08:42;3.80;;;1.52;;
25045;SDS011;13044;49.304;12.840;2023-07-31T03:11:09;1.48;;;1.17;;
25045;SDS011;13044;49.304;12.840;2023-07-31T03:13:35;2.75;;;1.52;;
25045;SDS011;13044;49.304;12.840;2023-07-31T03:16:02;2.67;;;1.80;;
25045;SDS011;13044;49.304;12.840;2023-07-31T03:18:29;1.63;;;1.52;;
25045;SDS011;13044;49.304;12.840;2023-07-31T03:20:56;2.10;;;1.60;;
25045;SDS011;13044;49.304;12.840;2023-07-31T03:23:23;1.40;;;1.30;;
25045;SDS011;13044;49.304;12.840;2023-07-31T03:28:29;2.33;;;1.50;;
25045;SDS011;13044;49.304;12.840;2023-07-31T03:30:56;2.13;;;1.38;;
25045;SDS011;13044;49.304;12.840;2023-07-31T03:33:23;1.52;;;1.30;;
25045;SDS011;13044;49.304;12.840;2023-07-31T03:35:50;1.40;;;1.30;;
25045;SDS011;13044;49.304;12.840;2023-07-31T03:38:17;1.65;;;1.50;;
25045;SDS011;13044;49.304;12.840;2023-07-31T03:40:44;2.35;;;1.40;;
25045;SDS011;13044;49.304;12.840;2023-07-31T03:43:12;11.23;;;1.90;;
25045;SDS011;13044;49.304;12.840;2023-07-31T03:45:39;3.00;;;1.60;;
25045;SDS011;13044;49.304;12.840;2023-07-31T03:48:06;2.00;;;1.50;;
25045;SDS011;13044;49.304;12.840;2023-07-31T03:50:34;1.98;;;1.50;;
25045;SDS011;13044;49.304;12.840;2023-07-31T03:53:01;1.67;;;1.40;;
25045;SDS011;13044;49.304;12.840;2023-07-31T03:55:28;2.17;;;1.50;;
25045;SDS011;13044;49.304;12.840;2023-07-31T03:57:54;7.53;;;1.67;;
25045;SDS011;13044;49.304;12.840;2023-07-31T04:00:21;1.58;;;1.48;;
25045;SDS011;13044;49.304;12.840;2023-07-31T04:02:49;4.13;;;1.80;;
25045;SDS011;13044;49.304;12.840;2023-07-31T04:05:16;2.75;;;1.70;;
25045;SDS011;13044;49.304;12.840;2023-07-31T04:07:43;2.33;;;1.63;;
25045;SDS011;13044;49.304;12.840;2023-07-31T04:10:09;6.57;;;2.45;;
25045;SDS011;13044;49.304;12.840;2023-07-31T04:12:39;2.20;;;1.73;;
25045;SDS011;13044;49.304;12.840;2023-07-31T04:15:06;2.40;;;1.90;;
25045;SDS011;13044;49.304;12.840;2023-07-31T04:17:33;5.30;;;2.10;;
25045;SDS011;13044;49.304;12.840;2023-07-31T04:20:00;6.63;;;2.00;;
25045;SDS011;13044;49.304;12.840;2023-07-31T04:22:27;2.50;;;1.60;;
25045;SDS011;13044;49.304;12.840;2023-07-31T04:24:54;2.22;;;1.65;;
25045;SDS011;13044;49.304;12.840;2023-07-31T04:27:21;3.38;;;1.95;;
25045;SDS011;13044;49.304;12.840;2023-07-31T04:29:48;9.88;;;4.13;;
25045;SDS011;13044;49.304;12.840;2023-07-31T04:32:15;11.45;;;5.40;;
25045;SDS011;13044;49.304;12.840;2023-07-31T04:34:43;8.13;;;4.68;;
25045;SDS011;13044;49.304;12.840;2023-07-31T04:37:10;2.97;;;2.40;;
25045;SDS011;13044;49.304;12.840;2023-07-31T04:39:37;2.72;;;1.92;;
25045;SDS011;13044;49.304;12.840;2023-07-31T04:42:04;3.45;;;1.80;;
25045;SDS011;13044;49.304;12.840;2023-07-31T04:44:31;3.67;;;2.03;;
25045;SDS011;13044;49.304;12.840;2023-07-31T04:46:57;3.15;;;1.67;;
25045;SDS011;13044;49.304;12.840;2023-07-31T04:49:24;2.40;;;1.60;;
25045;SDS011;13044;49.304;12.840;2023-07-31T04:51:51;2.03;;;1.40;;
25045;SDS011;13044;49.304;12.840;2023-07-31T04:54:18;1.73;;;1.38;;
25045;SDS011;13044;49.304;12.840;2023-07-31T04:56:45;2.15;;;1.40;;
25045;SDS011;13044;49.304;12.840;2023-07-31T04:59:12;3.80;;;1.80;;
25045;SDS011;13044;49.304;12.840;2023-07-31T05:01:39;2.63;;;1.50;;
25045;SDS011;13044;49.304;12.840;2023-07-31T05:04:05;1.73;;;1.40;;
25045;SDS011;13044;49.304;12.840;2023-07-31T05:06:32;3.80;;;1.80;;
25045;SDS011;13044;49.304;12.840;2023-07-31T05:08:59;1.73;;;1.35;;
25045;SDS011;13044;49.304;12.840;2023-07-31T05:11:26;2.42;;;1.55;;
25045;SDS011;13044;49.304;12.840;2023-07-31T05:13:53;2.40;;;1.55;;
25045;SDS011;13044;49.304;12.840;2023-07-31T05:16:20;2.80;;;1.48;;
25045;SDS011;13044;49.304;12.840;2023-07-31T05:18:47;3.33;;;2.00;;
25045;SDS011;13044;49.304;12.840;2023-07-31T05:21:14;4.22;;;1.70;;
25045;SDS011;13044;49.304;12.840;2023-07-31T05:23:40;2.25;;;1.50;;
25045;SDS011;13044;49.304;12.840;2023-07-31T05:26:07;4.47;;;2.17;;
25045;SDS011;13044;49.304;12.840;2023-07-31T05:28:37;4.45;;;2.13;;
25045;SDS011;13044;49.304;12.840;2023-07-31T05:31:04;3.55;;;1.83;;
25045;SDS011;13044;49.304;12.840;2023-07-31T05:33:32;4.55;;;1.90;;
25045;SDS011;13044;49.304;12.840;2023-07-31T05:35:59;3.40;;;1.90;;
25045;SDS011;13044;49.304;12.840;2023-07-31T05:38:26;2.80;;;1.70;;
25045;SDS011;13044;49.304;12.840;2023-07-31T05:40:53;1.98;;;1.30;;
25045;SDS011;13044;49.304;12.840;2023-07-31T05:43:20;2.22;;;1.35;;
25045;SDS011;13044;49.304;12.840;2023-07-31T05:45:47;3.00;;;1.42;;
25045;SDS011;13044;49.304;12.840;2023-07-31T05:48:14;2.17;;;1.38;;
25045;SDS011;13044;49.304;12.840;2023-07-31T05:50:41;2.45;;;1.70;;
25045;SDS011;13044;49.304;12.840;2023-07-31T05:53:09;1.58;;;1.42;;
25045;SDS011;13044;49.304;12.840;2023-07-31T05:55:36;3.90;;;1.80;;
25045;SDS011;13044;49.304;12.840;2023-07-31T05:58:03;3.08;;;1.73;;
25045;SDS011;13044;49.304;12.840;2023-07-31T06:00:30;6.97;;;2.20;;
25045;SDS011;13044;49.304;12.840;2023-07-31T06:02:58;2.35;;;1.48;;
25045;SDS011;13044;49.304;12.840;2023-07-31T06:05:24;3.70;;;2.28;;
25045;SDS011;13044;49.304;12.840;2023-07-31T06:07:52;5.15;;;1.75;;
25045;SDS011;13044;49.304;12.840;2023-07-31T06:10:19;5.10;;;1.85;;
25045;SDS011;13044;49.304;12.840;2023-07-31T06:12:46;5.38;;;1.70;;
25045;SDS011;13044;49.304;12.840;2023-07-31T06:15:13;4.75;;;1.80;;
25045;SDS011;13044;49.304;12.840;2023-07-31T06:17:40;1.65;;;1.50;;
25045;SDS011;13044;49.304;12.840;2023-07-31T06:20:07;4.25;;;1.67;;
25045;SDS011;13044;49.304;12.840;2023-07-31T06:22:34;3.00;;;1.70;;
25045;SDS011;13044;49.304;12.840;2023-07-31T06:25:01;3.47;;;1.58;;
25045;SDS011;13044;49.304;12.840;2023-07-31T06:27:29;3.63;;;1.80;;
25045;SDS011;13044;49.304;12.840;2023-07-31T06:29:55;2.72;;;1.73;;
25045;SDS011;13044;49.304;12.840;2023-07-31T06:32:22;5.05;;;2.20;;
25045;SDS011;13044;49.304;12.840;2023-07-31T06:34:50;3.53;;;1.92;;
25045;SDS011;13044;49.304;12.840;2023-07-31T06:37:17;2.45;;;1.50;;
25045;SDS011;13044;49.304;12.840;2023-07-31T06:39:44;2.33;;;1.70;;
25045;SDS011;13044;49.304;12.840;2023-07-31T06:42:11;4.80;;;1.75;;
25045;SDS011;13044;49.304;12.840;2023-07-31T06:44:37;2.33;;;1.50;;
25045;SDS011;13044;49.304;12.840;2023-07-31T06:47:04;7.57;;;1.85;;
25045;SDS011;13044;49.304;12.840;2023-07-31T06:49:31;2.78;;;1.63;;
25045;SDS011;13044;49.304;12.840;2023-07-31T06:51:58;3.97;;;1.60;;
25045;SDS011;13044;49.304;12.840;2023-07-31T06:54:25;2.67;;;1.70;;
25045;SDS011;13044;49.304;12.840;2023-07-31T06:56:52;3.08;;;1.50;;
25045;SDS011;13044;49.304;12.840;2023-07-31T06:59:19;6.22;;;1.48;;
25045;SDS011;13044;49.304;12.840;2023-07-31T07:01:46;4.43;;;1.75;;
25045;SDS011;13044;49.304;12.840;2023-07-31T07:04:13;5.40;;;2.08;;
25045;SDS011;13044;49.304;12.840;2023-07-31T07:06:40;3.22;;;1.70;;
25045;SDS011;13044;49.304;12.840;2023-07-31T07:09:08;2.95;;;1.80;;
25045;SDS011;13044;49.304;12.840;2023-07-31T07:11:35;4.65;;;1.90;;
25045;SDS011;13044;49.304;12.840;2023-07-31T07:14:03;7.05;;;1.90;;
25045;SDS011;13044;49.304;12.840;2023-07-31T07:16:31;4.40;;;1.80;;
25045;SDS011;13044;49.304;12.840;2023-07-31T07:18:58;4.72;;;1.60;;
25045;SDS011;13044;49.304;12.840;2023-07-31T07:21:30;4.15;;;1.85;;
25045;SDS011;13044;49.304;12.840;2023-07-31T07:23:57;2.55;;;1.70;;
25045;SDS011;13044;49.304;12.840;2023-07-31T07:26:24;3.28;;;1.88;;
25045;SDS011;13044;49.304;12.840;2023-07-31T07:28:51;2.53;;;1.52;;
25045;SDS011;13044;49.304;12.840;2023-07-31T07:31:18;2.28;;;1.50;;
25045;SDS011;13044;49.304;12.840;2023-07-31T07:33:45;2.78;;;1.70;;
25045;SDS011;13044;49.304;12.840;2023-07-31T07:36:13;3.65;;;2.00;;
25045;SDS011;13044;49.304;12.840;2023-07-31T07:38:40;2.88;;;1.60;;
25045;SDS011;13044;49.304;12.840;2023-07-31T07:41:07;7.78;;;1.90;;
25045;SDS011;13044;49.304;12.840;2023-07-31T07:43:34;2.35;;;1.70;;
25045;SDS011;13044;49.304;12.840;2023-07-31T07:46:01;2.95;;;1.60;;
25045;SDS011;13044;49.304;12.840;2023-07-31T07:48:29;2.95;;;1.48;;
25045;SDS011;13044;49.304;12.840;2023-07-31T07:50:56;2.83;;;1.90;;
25045;SDS011;13044;49.304;12.840;2023-07-31T07:53:23;4.35;;;1.65;;
25045;SDS011;13044;49.304;12.840;2023-07-31T07:55:50;2.33;;;1.40;;
25045;SDS011;13044;49.304;12.840;2023-07-31T07:58:17;4.45;;;2.00;;
25045;SDS011;13044;49.304;12.840;2023-07-31T08:00:50;5.35;;;1.70;;
25045;SDS011;13044;49.304;12.840;2023-07-31T08:03:18;3.63;;;2.05;;
25045;SDS011;13044;49.304;12.840;2023-07-31T08:05:45;5.90;;;2.85;;
25045;SDS011;13044;49.304;12.840;2023-07-31T08:08:15;4.03;;;1.75;;
25045;SDS011;13044;49.304;12.840;2023-07-31T08:10:43;1.92;;;1.60;;
25045;SDS011;13044;49.304;12.840;2023-07-31T08:13:10;2.05;;;1.52;;
25045;SDS011;13044;49.304;12.840;2023-07-31T08:15:38;3.58;;;1.90;;
25045;SDS011;13044;49.304;12.840;2023-07-31T08:18:08;3.72;;;1.48;;
25045;SDS011;13044;49.304;12.840;2023-07-31T08:20:35;3.63;;;1.70;;
25045;SDS011;13044;49.304;12.840;2023-07-31T08:23:02;2.72;;;1.65;;
25045;SDS011;13044;49.304;12.840;2023-07-31T08:25:30;4.57;;;1.67;;
25045;SDS011;13044;49.304;12.840;2023-07-31T08:27:57;2.45;;;1.63;;
25045;SDS011;13044;49.304;12.840;2023-07-31T08:30:24;3.13;;;1.58;;
25045;SDS011;13044;49.304;12.840;2023-07-31T08:32:51;2.70;;;1.65;;
25045;SDS011;13044;49.304;12.840;2023-07-31T08:35:18;3.17;;;1.80;;
25045;SDS011;13044;49.304;12.840;2023-07-31T08:37:45;5.68;;;2.30;;
25045;SDS011;13044;49.304;12.840;2023-07-31T08:40:12;4.53;;;1.80;;
25045;SDS011;13044;49.304;12.840;2023-07-31T08:42:43;3.05;;;1.90;;
25045;SDS011;13044;49.304;12.840;2023-07-31T08:45:15;6.20;;;1.95;;
25045;SDS011;13044;49.304;12.840;2023-07-31T08:47:44;5.32;;;1.95;;
25045;SDS011;13044;49.304;12.840;2023-07-31T08:50:14;3.70;;;2.10;;
25045;SDS011;13044;49.304;12.840;2023-07-31T08:52:43;2.53;;;1.80;;
25045;SDS011;13044;49.304;12.840;2023-07-31T08:55:12;3.45;;;1.80;;
25045;SDS011;13044;49.304;12.840;2023-07-31T08:57:40;4.55;;;2.05;;
25045;SDS011;13044;49.304;12.840;2023-07-31T09:00:10;2.40;;;1.70;;
25045;SDS011;13044;49.304;12.840;2023-07-31T09:02:38;4.68;;;2.05;;
25045;SDS011;13044;49.304;12.840;2023-07-31T09:05:12;3.55;;;1.90;;
25045;SDS011;13044;49.304;12.840;2023-07-31T09:07:39;6.63;;;2.40;;
25045;SDS011;13044;49.304;12.840;2023-07-31T09:10:08;3.58;;;2.25;;
25045;SDS011;13044;49.304;12.840;2023-07-31T09:12:36;6.47;;;2.20;;
25045;SDS011;13044;49.304;12.840;2023-07-31T09:15:03;3.35;;;2.00;;
25045;SDS011;13044;49.304;12.840;2023-07-31T09:17:32;6.18;;;2.20;;
25045;SDS011;13044;49.304;12.840;2023-07-31T09:20:15;6.18;;;2.10;;
25045;SDS011;13044;49.304;12.840;2023-07-31T09:22:45;6.10;;;2.17;;
25045;SDS011;13044;49.304;12.840;2023-07-31T09:25:17;5.47;;;2.47;;
25045;SDS011;13044;49.304;12.840;2023-07-31T09:27:59;2.97;;;2.08;;
25045;SDS011;13044;49.304;12.840;2023-07-31T09:30:43;5.47;;;1.90;;
25045;SDS011;13044;49.304;12.840;2023-07-31T09:33:16;2.75;;;1.95;;
25045;SDS011;13044;49.304;12.840;2023-07-31T09:35:45;4.95;;;2.20;;
25045;SDS011;13044;49.304;12.840;2023-07-31T09:38:14;4.15;;;2.20;;
25045;SDS011;13044;49.304;12.840;2023-07-31T09:40:43;5.65;;;2.17;;
25045;SDS011;13044;49.304;12.840;2023-07-31T09:43:13;2.33;;;1.88;;
25045;SDS011;13044;49.304;12.840;2023-07-31T09:45:47;3.33;;;1.80;;
25045;SDS011;13044;49.304;12.840;2023-07-31T09:48:15;2.90;;;1.90;;
25045;SDS011;13044;49.304;12.840;2023-07-31T09:50:44;2.72;;;2.00;;
25045;SDS011;13044;49.304;12.840;2023-07-31T09:53:13;4.50;;;2.10;;
25045;SDS011;13044;49.304;12.840;2023-07-31T09:55:42;5.63;;;2.08;;
25045;SDS011;13044;49.304;12.840;2023-07-31T09:58:10;3.72;;;1.98;;
25045;SDS011;13044;49.304;12.840;2023-07-31T10:00:39;5.65;;;1.90;;
25045;SDS011;13044;49.304;12.840;2023-07-31T10:03:07;13.77;;;2.60;;
25045;SDS011;13044;49.304;12.840;2023-07-31T10:05:49;4.53;;;2.28;;
25045;SDS011;13044;49.304;12.840;2023-07-31T10:08:20;4.10;;;2.08;;
25045;SDS011;13044;49.304;12.840;2023-07-31T10:10:52;6.90;;;2.13;;
25045;SDS011;13044;49.304;12.840;2023-07-31T10:13:19;5.18;;;2.42;;
25045;SDS011;13044;49.304;12.840;2023-07-31T10:15:48;5.50;;;2.10;;
25045;SDS011;13044;49.304;12.840;2023-07-31T10:18:15;5.70;;;2.10;;
25045;SDS011;13044;49.304;12.840;2023-07-31T10:20:44;3.45;;;2.00;;
25045;SDS011;13044;49.304;12.840;2023-07-31T10:23:13;5.45;;;2.15;;
25045;SDS011;13044;49.304;12.840;2023-07-31T10:25:42;4.38;;;2.08;;
25045;SDS011;13044;49.304;12.840;2023-07-31T10:28:10;3.78;;;2.03;;
25045;SDS011;13044;49.304;12.840;2023-07-31T10:30:38;3.22;;;1.92;;
25045;SDS011;13044;49.304;12.840;2023-07-31T10:33:06;3.60;;;2.15;;
25045;SDS011;13044;49.304;12.840;2023-07-31T10:35:33;2.20;;;1.52;;
25045;SDS011;13044;49.304;12.840;2023-07-31T10:38:09;2.92;;;1.83;;
25045;SDS011;13044;49.304;12.840;2023-07-31T10:40:40;2.85;;;2.33;;
25045;SDS011;13044;49.304;12.840;2023-07-31T10:43:07;3.22;;;2.03;;
25045;SDS011;13044;49.304;12.840;2023-07-31T10:45:38;2.10;;;1.60;;
25045;SDS011;13044;49.304;12.840;2023-07-31T10:48:15;2.83;;;1.65;;
25045;SDS011;13044;49.304;12.840;2023-07-31T10:50:49;3.45;;;2.08;;
25045;SDS011;13044;49.304;12.840;2023-07-31T10:53:22;4.97;;;1.88;;
25045;SDS011;13044;49.304;12.840;2023-07-31T10:56:04;3.58;;;1.92;;
25045;SDS011;13044;49.304;12.840;2023-07-31T10:58:33;3.60;;;1.77;;
25045;SDS011;13044;49.304;12.840;2023-07-31T11:01:05;3.88;;;2.25;;
25045;SDS011;13044;49.304;12.840;2023-07-31T11:03:43;7.75;;;2.10;;
25045;SDS011;13044;49.304;12.840;2023-07-31T11:06:16;2.80;;;1.77;;
25045;SDS011;13044;49.304;12.840;2023-07-31T11:11:17;4.07;;;1.85;;
25045;SDS011;13044;49.304;12.840;2023-07-31T11:13:46;2.17;;;1.70;;
25045;SDS011;13044;49.304;12.840;2023-07-31T11:16:19;3.65;;;1.88;;
25045;SDS011;13044;49.304;12.840;2023-07-31T11:18:49;5.25;;;2.28;;
25045;SDS011;13044;49.304;12.840;2023-07-31T11:21:18;3.85;;;1.52;;
25045;SDS011;13044;49.304;12.840;2023-07-31T11:23:52;2.90;;;1.70;;
25045;SDS011;13044;49.304;12.840;2023-07-31T11:26:24;6.05;;;1.80;;
25045;SDS011;13044;49.304;12.840;2023-07-31T11:28:51;4.50;;;2.05;;
25045;SDS011;13044;49.304;12.840;2023-07-31T11:31:18;1.92;;;1.75;;
25045;SDS011;13044;49.304;12.840;2023-07-31T11:33:45;3.83;;;1.60;;
25045;SDS011;13044;49.304;12.840;2023-07-31T11:36:16;3.38;;;1.70;;
25045;SDS011;13044;49.304;12.840;2023-07-31T11:38:45;3.05;;;1.70;;
25045;SDS011;13044;49.304;12.840;2023-07-31T11:41:16;2.83;;;1.75;;
25045;SDS011;13044;49.304;12.840;2023-07-31T11:43:45;3.10;;;2.00;;
25045;SDS011;13044;49.304;12.840;2023-07-31T11:46:13;2.72;;;1.88;;
25045;SDS011;13044;49.304;12.840;2023-07-31T11:48:41;3.83;;;1.67;;
25045;SDS011;13044;49.304;12.840;2023-07-31T11:51:09;3.60;;;1.65;;
25045;SDS011;13044;49.304;12.840;2023-07-31T11:53:41;4.38;;;1.67;;
25045;SDS011;13044;49.304;12.840;2023-07-31T11:56:22;2.55;;;1.67;;
25045;SDS011;13044;49.304;12.840;2023-07-31T11:58:55;3.30;;;1.80;;
25045;SDS011;13044;49.304;12.840;2023-07-31T12:01:26;3.13;;;1.90;;
25045;SDS011;13044;49.304;12.840;2023-07-31T12:03:54;4.68;;;1.95;;
25045;SDS011;13044;49.304;12.840;2023-07-31T12:06:32;2.92;;;1.80;;
25045;SDS011;13044;49.304;12.840;2023-07-31T12:09:04;3.88;;;2.30;;
25045;SDS011;13044;49.304;12.840;2023-07-31T12:11:42;3.17;;;2.10;;
25045;SDS011;13044;49.304;12.840;2023-07-31T12:14:34;2.88;;;1.80;;
25045;SDS011;13044;49.304;12.840;2023-07-31T12:17:03;3.35;;;2.10;;
25045;SDS011;13044;49.304;12.840;2023-07-31T12:19:31;2.95;;;2.05;;
25045;SDS011;13044;49.304;12.840;2023-07-31T12:21:58;3.03;;;2.03;;
25045;SDS011;13044;49.304;12.840;2023-07-31T12:24:27;4.40;;;2.38;;
25045;SDS011;13044;49.304;12.840;2023-07-31T12:26:55;6.18;;;1.85;;
25045;SDS011;13044;49.304;12.840;2023-07-31T12:29:22;2.05;;;1.42;;
25045;SDS011;13044;49.304;12.840;2023-07-31T12:31:49;4.40;;;1.90;;
25045;SDS011;13044;49.304;12.840;2023-07-31T12:34:16;3.88;;;1.90;;
25045;SDS011;13044;49.304;12.840;2023-07-31T12:36:45;3.58;;;2.05;;
25045;SDS011;13044;49.304;12.840;2023-07-31T12:39:12;2.40;;;1.73;;
25045;SDS011;13044;49.304;12.840;2023-07-31T12:41:39;4.13;;;1.80;;
25045;SDS011;13044;49.304;12.840;2023-07-31T12:44:07;3.22;;;1.90;;
25045;SDS011;13044;49.304;12.840;2023-07-31T12:46:33;2.92;;;1.85;;
25045;SDS011;13044;49.304;12.840;2023-07-31T12:49:01;3.13;;;1.73;;
25045;SDS011;13044;49.304;12.840;2023-07-31T12:51:28;4.95;;;2.10;;
25045;SDS011;13044;49.304;12.840;2023-07-31T12:53:55;2.33;;;1.65;;
25045;SDS011;13044;49.304;12.840;2023-07-31T12:56:22;6.43;;;2.53;;
25045;SDS011;13044;49.304;12.840;2023-07-31T12:58:49;4.68;;;1.95;;
25045;SDS011;13044;49.304;12.840;2023-07-31T13:01:17;4.03;;;1.90;;
25045;SDS011;13044;49.304;12.840;2023-07-31T13:03:44;2.83;;;1.73;;
25045;SDS011;13044;49.304;12.840;2023-07-31T13:06:11;2.67;;;1.70;;
25045;SDS011;13044;49.304;12.840;2023-07-31T13:08:38;2.78;;;1.77;;
25045;SDS011;13044;49.304;12.840;2023-07-31T13:11:05;2.83;;;1.88;;
25045;SDS011;13044;49.304;12.840;2023-07-31T13:13:32;3.30;;;1.73;;
25045;SDS011;13044;49.304;12.840;2023-07-31T13:15:59;2.25;;;1.70;;
25045;SDS011;13044;49.304;12.840;2023-07-31T13:18:26;2.25;;;1.83;;
25045;SDS011;13044;49.304;12.840;2023-07-31T13:20:53;2.22;;;1.65;;
25045;SDS011;13044;49.304;12.840;2023-07-31T13:23:20;3.70;;;2.10;;
25045;SDS011;13044;49.304;12.840;2023-07-31T13:25:47;7.38;;;1.80;;
25045;SDS011;13044;49.304;12.840;2023-07-31T13:28:14;3.70;;;1.73;;
25045;SDS011;13044;49.304;12.840;2023-07-31T13:30:41;2.38;;;1.65;;
25045;SDS011;13044;49.304;12.840;2023-07-31T13:33:08;3.15;;;1.75;;
25045;SDS011;13044;49.304;12.840;2023-07-31T13:35:50;3.35;;;2.13;;
25045;SDS011;13044;49.304;12.840;2023-07-31T13:38:17;2.72;;;1.77;;
25045;SDS011;13044;49.304;12.840;2023-07-31T13:40:44;3.42;;;1.80;;
25045;SDS011;13044;49.304;12.840;2023-07-31T13:43:11;4.03;;;1.88;;
25045;SDS011;13044;49.304;12.840;2023-07-31T13:45:38;3.03;;;2.20;;
25045;SDS011;13044;49.304;12.840;2023-07-31T13:48:05;5.50;;;1.75;;
25045;SDS011;13044;49.304;12.840;2023-07-31T13:50:32;3.20;;;2.00;;
25045;SDS011;13044;49.304;12.840;2023-07-31T13:52:59;5.45;;;2.63;;
25045;SDS011;13044;49.304;12.840;2023-07-31T13:55:25;3.10;;;2.03;;
25045;SDS011;13044;49.304;12.840;2023-07-31T13:57:52;4.80;;;1.83;;
25045;SDS011;13044;49.304;12.840;2023-07-31T14:00:19;1.95;;;1.65;;
25045;SDS011;13044;49.304;12.840;2023-07-31T14:02:46;2.60;;;1.90;;
25045;SDS011;13044;49.304;12.840;2023-07-31T14:05:13;2.33;;;1.80;;
25045;SDS011;13044;49.304;12.840;2023-07-31T14:07:40;4.00;;;1.80;;
25045;SDS011;13044;49.304;12.840;2023-07-31T14:10:07;3.72;;;2.10;;
25045;SDS011;13044;49.304;12.840;2023-07-31T14:12:35;3.53;;;1.90;;
25045;SDS011;13044;49.304;12.840;2023-07-31T14:15:08;2.85;;;2.05;;
25045;SDS011;13044;49.304;12.840;2023-07-31T14:17:36;2.88;;;1.90;;
25045;SDS011;13044;49.304;12.840;2023-07-31T14:20:04;2.85;;;1.92;;
25045;SDS011;13044;49.304;12.840;2023-07-31T14:22:32;3.85;;;2.22;;
25045;SDS011;13044;49.304;12.840;2023-07-31T14:25:00;3.25;;;2.17;;
25045;SDS011;13044;49.304;12.840;2023-07-31T14:27:28;4.68;;;2.00;;
25045;SDS011;13044;49.304;12.840;2023-07-31T14:29:55;3.85;;;2.20;;
25045;SDS011;13044;49.304;12.840;2023-07-31T14:32:22;2.63;;;2.00;;
25045;SDS011;13044;49.304;12.840;2023-07-31T14:34:51;2.08;;;1.77;;
25045;SDS011;13044;49.304;12.840;2023-07-31T14:37:18;2.78;;;2.05;;
25045;SDS011;13044;49.304;12.840;2023-07-31T14:39:45;3.00;;;1.98;;
25045;SDS011;13044;49.304;12.840;2023-07-31T14:42:12;3.00;;;1.70;;
25045;SDS011;13044;49.304;12.840;2023-07-31T14:44:39;3.50;;;2.25;;
25045;SDS011;13044;49.304;12.840;2023-07-31T14:47:06;2.70;;;2.03;;
25045;SDS011;13044;49.304;12.840;2023-07-31T14:49:33;4.03;;;2.20;;